sensor_id;sensor_type;location;lat;lon;timestamp;P1;durP1;ratioP1;P2;durP2;ratioP2
63738;SDS011;68816;45.558;10.070;2023-04-03T00:02:02;9.25;;;7.07;;
63738;SDS011;68816;45.558;10.070;2023-04-03T00:04:28;9.75;;;6.90;;
63738;SDS011;68816;45.558;10.070;2023-04-03T00:06:53;9.05;;;6.80;;
63738;SDS011;68816;45.558;10.070;2023-04-03T00:09:19;10.05;;;6.90;;
63738;SDS011;68816;45.558;10.070;2023-04-03T00:11:45;9.43;;;6.40;;
63738;SDS011;68816;45.558;10.070;2023-04-03T00:14:10;8.32;;;6.22;;
63738;SDS011;68816;45.558;10.070;2023-04-03T00:16:36;9.75;;;6.80;;
63738;SDS011;68816;45.558;10.070;2023-04-03T00:19:01;8.18;;;6.40;;
63738;SDS011;68816;45.558;10.070;2023-04-03T00:21:27;8.48;;;5.90;;
63738;SDS011;68816;45.558;10.070;2023-04-03T00:23:52;8.50;;;6.70;;
63738;SDS011;68816;45.558;10.070;2023-04-03T00:26:17;7.70;;;6.30;;
63738;SDS011;68816;45.558;10.070;2023-04-03T00:28:43;9.32;;;6.40;;
63738;SDS011;68816;45.558;10.070;2023-04-03T00:31:08;12.98;;;6.75;;
63738;SDS011;68816;45.558;10.070;2023-04-03T00:33:34;9.93;;;6.50;;
63738;SDS011;68816;45.558;10.070;2023-04-03T00:36:04;10.80;;;6.68;;
63738;SDS011;68816;45.558;10.070;2023-04-03T00:38:31;12.05;;;6.68;;
63738;SDS011;68816;45.558;10.070;2023-04-03T00:40:56;10.13;;;6.60;;
63738;SDS011;68816;45.558;10.070;2023-04-03T00:43:23;8.93;;;6.57;;
63738;SDS011;68816;45.558;10.070;2023-04-03T00:45:52;9.63;;;6.10;;
63738;SDS011;68816;45.558;10.070;2023-04-03T00:48:32;9.38;;;6.28;;
63738;SDS011;68816;45.558;10.070;2023-04-03T00:51:02;8.27;;;6.43;;
63738;SDS011;68816;45.558;10.070;2023-04-03T00:53:30;7.35;;;5.97;;
63738;SDS011;68816;45.558;10.070;2023-04-03T00:55:58;9.95;;;6.40;;
63738;SDS011;68816;45.558;10.070;2023-04-03T00:58:31;10.75;;;6.43;;
63738;SDS011;68816;45.558;10.070;2023-04-03T01:01:03;10.30;;;6.55;;
63738;SDS011;68816;45.558;10.070;2023-04-03T01:03:32;10.30;;;6.65;;
63738;SDS011;68816;45.558;10.070;2023-04-03T01:05:57;8.23;;;6.00;;
63738;SDS011;68816;45.558;10.070;2023-04-03T01:08:23;11.10;;;6.80;;
63738;SDS011;68816;45.558;10.070;2023-04-03T01:10:49;9.02;;;5.93;;
63738;SDS011;68816;45.558;10.070;2023-04-03T01:13:23;10.13;;;6.28;;
63738;SDS011;68816;45.558;10.070;2023-04-03T01:15:56;11.15;;;6.22;;
63738;SDS011;68816;45.558;10.070;2023-04-03T01:18:25;8.98;;;6.22;;
63738;SDS011;68816;45.558;10.070;2023-04-03T01:26:19;7.85;;;6.00;;
63738;SDS011;68816;45.558;10.070;2023-04-03T01:28:45;9.85;;;6.50;;
63738;SDS011;68816;45.558;10.070;2023-04-03T01:33:47;8.98;;;6.50;;
63738;SDS011;68816;45.558;10.070;2023-04-03T01:36:15;9.82;;;6.60;;
63738;SDS011;68816;45.558;10.070;2023-04-03T01:38:43;8.73;;;6.82;;
63738;SDS011;68816;45.558;10.070;2023-04-03T01:41:09;10.85;;;6.65;;
63738;SDS011;68816;45.558;10.070;2023-04-03T01:43:34;8.73;;;6.63;;
63738;SDS011;68816;45.558;10.070;2023-04-03T01:46:00;10.75;;;6.93;;
63738;SDS011;68816;45.558;10.070;2023-04-03T01:48:25;8.95;;;6.22;;
63738;SDS011;68816;45.558;10.070;2023-04-03T01:50:51;8.73;;;6.88;;
63738;SDS011;68816;45.558;10.070;2023-04-03T01:53:16;8.65;;;6.00;;
63738;SDS011;68816;45.558;10.070;2023-04-03T01:55:42;9.75;;;6.25;;
63738;SDS011;68816;45.558;10.070;2023-04-03T01:58:07;7.88;;;5.93;;
63738;SDS011;68816;45.558;10.070;2023-04-03T02:00:33;9.98;;;6.47;;
63738;SDS011;68816;45.558;10.070;2023-04-03T02:02:58;8.93;;;6.53;;
63738;SDS011;68816;45.558;10.070;2023-04-03T02:05:24;8.80;;;6.32;;
63738;SDS011;68816;45.558;10.070;2023-04-03T02:07:49;9.30;;;5.88;;
63738;SDS011;68816;45.558;10.070;2023-04-03T02:10:15;9.50;;;6.45;;
63738;SDS011;68816;45.558;10.070;2023-04-03T02:12:41;9.70;;;6.47;;
63738;SDS011;68816;45.558;10.070;2023-04-03T02:15:06;8.15;;;6.53;;
63738;SDS011;68816;45.558;10.070;2023-04-03T02:17:32;8.50;;;5.93;;
63738;SDS011;68816;45.558;10.070;2023-04-03T02:19:58;9.68;;;6.35;;
63738;SDS011;68816;45.558;10.070;2023-04-03T02:22:23;7.97;;;6.03;;
63738;SDS011;68816;45.558;10.070;2023-04-03T02:24:48;9.00;;;6.65;;
63738;SDS011;68816;45.558;10.070;2023-04-03T02:27:14;10.40;;;6.22;;
63738;SDS011;68816;45.558;10.070;2023-04-03T02:29:40;9.60;;;6.35;;
63738;SDS011;68816;45.558;10.070;2023-04-03T02:32:06;8.77;;;6.18;;
63738;SDS011;68816;45.558;10.070;2023-04-03T02:34:31;8.60;;;6.13;;
63738;SDS011;68816;45.558;10.070;2023-04-03T02:36:56;10.27;;;6.68;;
63738;SDS011;68816;45.558;10.070;2023-04-03T02:39:22;9.20;;;6.15;;
63738;SDS011;68816;45.558;10.070;2023-04-03T02:41:47;9.20;;;6.25;;
63738;SDS011;68816;45.558;10.070;2023-04-03T02:44:13;10.20;;;6.55;;
63738;SDS011;68816;45.558;10.070;2023-04-03T02:46:38;8.60;;;5.90;;
63738;SDS011;68816;45.558;10.070;2023-04-03T02:49:04;8.98;;;5.85;;
63738;SDS011;68816;45.558;10.070;2023-04-03T02:51:30;9.40;;;6.25;;
63738;SDS011;68816;45.558;10.070;2023-04-03T02:53:56;10.82;;;6.18;;
63738;SDS011;68816;45.558;10.070;2023-04-03T02:56:21;8.75;;;6.30;;
63738;SDS011;68816;45.558;10.070;2023-04-03T02:58:47;11.20;;;6.30;;
63738;SDS011;68816;45.558;10.070;2023-04-03T03:01:12;11.82;;;6.30;;
63738;SDS011;68816;45.558;10.070;2023-04-03T03:03:38;8.75;;;6.13;;
63738;SDS011;68816;45.558;10.070;2023-04-03T03:06:10;8.95;;;6.00;;
63738;SDS011;68816;45.558;10.070;2023-04-03T03:08:39;8.20;;;6.00;;
63738;SDS011;68816;45.558;10.070;2023-04-03T03:11:05;11.35;;;6.40;;
63738;SDS011;68816;45.558;10.070;2023-04-03T03:13:31;7.32;;;6.15;;
63738;SDS011;68816;45.558;10.070;2023-04-03T03:15:57;8.68;;;6.10;;
63738;SDS011;68816;45.558;10.070;2023-04-03T03:18:22;9.15;;;6.10;;
63738;SDS011;68816;45.558;10.070;2023-04-03T03:21:06;10.10;;;6.38;;
63738;SDS011;68816;45.558;10.070;2023-04-03T03:23:32;9.82;;;6.47;;
63738;SDS011;68816;45.558;10.070;2023-04-03T03:25:58;7.47;;;5.78;;
63738;SDS011;68816;45.558;10.070;2023-04-03T03:28:25;9.88;;;6.05;;
63738;SDS011;68816;45.558;10.070;2023-04-03T03:30:51;10.75;;;6.18;;
63738;SDS011;68816;45.558;10.070;2023-04-03T03:33:17;8.13;;;5.80;;
63738;SDS011;68816;45.558;10.070;2023-04-03T03:35:44;8.98;;;5.43;;
63738;SDS011;68816;45.558;10.070;2023-04-03T03:38:10;10.70;;;5.53;;
63738;SDS011;68816;45.558;10.070;2023-04-03T03:40:36;9.48;;;5.43;;
63738;SDS011;68816;45.558;10.070;2023-04-03T03:43:01;9.52;;;6.07;;
63738;SDS011;68816;45.558;10.070;2023-04-03T03:45:27;8.32;;;5.70;;
63738;SDS011;68816;45.558;10.070;2023-04-03T03:47:52;9.23;;;6.00;;
63738;SDS011;68816;45.558;10.070;2023-04-03T03:50:18;12.57;;;5.57;;
63738;SDS011;68816;45.558;10.070;2023-04-03T03:52:43;14.00;;;5.93;;
63738;SDS011;68816;45.558;10.070;2023-04-03T03:55:09;8.95;;;5.85;;
63738;SDS011;68816;45.558;10.070;2023-04-03T03:57:35;8.50;;;5.38;;
63738;SDS011;68816;45.558;10.070;2023-04-03T04:00:00;7.93;;;5.32;;
63738;SDS011;68816;45.558;10.070;2023-04-03T04:02:26;8.40;;;5.80;;
63738;SDS011;68816;45.558;10.070;2023-04-03T04:04:51;8.85;;;6.10;;
63738;SDS011;68816;45.558;10.070;2023-04-03T04:07:17;11.20;;;5.80;;
63738;SDS011;68816;45.558;10.070;2023-04-03T04:09:42;12.40;;;5.65;;
63738;SDS011;68816;45.558;10.070;2023-04-03T04:12:08;11.98;;;5.78;;
63738;SDS011;68816;45.558;10.070;2023-04-03T04:14:33;8.32;;;5.32;;
63738;SDS011;68816;45.558;10.070;2023-04-03T04:16:59;9.07;;;5.68;;
63738;SDS011;68816;45.558;10.070;2023-04-03T04:19:24;10.80;;;6.57;;
63738;SDS011;68816;45.558;10.070;2023-04-03T04:21:50;8.70;;;5.97;;
63738;SDS011;68816;45.558;10.070;2023-04-03T04:24:15;9.43;;;6.45;;
63738;SDS011;68816;45.558;10.070;2023-04-03T04:26:41;18.65;;;9.95;;
63738;SDS011;68816;45.558;10.070;2023-04-03T04:29:08;15.38;;;8.60;;
63738;SDS011;68816;45.558;10.070;2023-04-03T04:31:34;15.52;;;8.48;;
63738;SDS011;68816;45.558;10.070;2023-04-03T04:33:59;12.13;;;7.28;;
63738;SDS011;68816;45.558;10.070;2023-04-03T04:36:25;10.05;;;6.75;;
63738;SDS011;68816;45.558;10.070;2023-04-03T04:38:50;7.10;;;5.55;;
63738;SDS011;68816;45.558;10.070;2023-04-03T04:41:18;7.25;;;5.30;;
63738;SDS011;68816;45.558;10.070;2023-04-03T04:43:47;8.30;;;5.07;;
63738;SDS011;68816;45.558;10.070;2023-04-03T04:46:13;8.05;;;5.32;;
63738;SDS011;68816;45.558;10.070;2023-04-03T04:48:38;11.65;;;5.95;;
63738;SDS011;68816;45.558;10.070;2023-04-03T04:51:05;9.85;;;5.40;;
63738;SDS011;68816;45.558;10.070;2023-04-03T04:53:31;13.35;;;5.30;;
63738;SDS011;68816;45.558;10.070;2023-04-03T04:55:56;10.40;;;6.47;;
63738;SDS011;68816;45.558;10.070;2023-04-03T04:58:22;13.50;;;6.57;;
63738;SDS011;68816;45.558;10.070;2023-04-03T05:00:47;11.27;;;6.25;;
63738;SDS011;68816;45.558;10.070;2023-04-03T05:03:13;11.13;;;5.68;;
63738;SDS011;68816;45.558;10.070;2023-04-03T05:05:39;10.93;;;5.30;;
63738;SDS011;68816;45.558;10.070;2023-04-03T05:08:05;10.15;;;5.78;;
63738;SDS011;68816;45.558;10.070;2023-04-03T05:10:33;13.05;;;5.40;;
63738;SDS011;68816;45.558;10.070;2023-04-03T05:12:59;12.35;;;5.18;;
63738;SDS011;68816;45.558;10.070;2023-04-03T05:15:24;8.93;;;4.80;;
63738;SDS011;68816;45.558;10.070;2023-04-03T05:17:50;7.78;;;4.65;;
63738;SDS011;68816;45.558;10.070;2023-04-03T05:20:16;9.05;;;4.97;;
63738;SDS011;68816;45.558;10.070;2023-04-03T05:22:41;10.82;;;5.90;;
63738;SDS011;68816;45.558;10.070;2023-04-03T05:25:07;8.48;;;4.25;;
63738;SDS011;68816;45.558;10.070;2023-04-03T05:27:33;7.25;;;4.85;;
63738;SDS011;68816;45.558;10.070;2023-04-03T05:29:58;7.10;;;4.53;;
63738;SDS011;68816;45.558;10.070;2023-04-03T05:32:25;9.65;;;4.80;;
63738;SDS011;68816;45.558;10.070;2023-04-03T05:34:52;16.75;;;5.03;;
63738;SDS011;68816;45.558;10.070;2023-04-03T05:37:18;8.18;;;4.30;;
63738;SDS011;68816;45.558;10.070;2023-04-03T05:39:43;10.02;;;4.57;;
63738;SDS011;68816;45.558;10.070;2023-04-03T05:42:09;12.38;;;4.50;;
63738;SDS011;68816;45.558;10.070;2023-04-03T05:44:36;8.48;;;4.43;;
63738;SDS011;68816;45.558;10.070;2023-04-03T05:47:02;9.90;;;4.70;;
63738;SDS011;68816;45.558;10.070;2023-04-03T05:49:27;10.32;;;4.22;;
63738;SDS011;68816;45.558;10.070;2023-04-03T05:51:53;10.20;;;4.45;;
63738;SDS011;68816;45.558;10.070;2023-04-03T05:54:19;12.25;;;4.90;;
63738;SDS011;68816;45.558;10.070;2023-04-03T05:56:48;15.88;;;5.88;;
63738;SDS011;68816;45.558;10.070;2023-04-03T05:59:14;10.68;;;5.00;;
63738;SDS011;68816;45.558;10.070;2023-04-03T06:01:40;12.82;;;4.70;;
63738;SDS011;68816;45.558;10.070;2023-04-03T06:04:06;9.90;;;5.07;;
63738;SDS011;68816;45.558;10.070;2023-04-03T06:06:52;9.18;;;5.07;;
63738;SDS011;68816;45.558;10.070;2023-04-03T06:09:20;11.02;;;5.20;;
63738;SDS011;68816;45.558;10.070;2023-04-03T06:11:47;9.20;;;4.93;;
63738;SDS011;68816;45.558;10.070;2023-04-03T06:14:12;10.57;;;5.10;;
63738;SDS011;68816;45.558;10.070;2023-04-03T06:16:38;9.10;;;4.22;;
63738;SDS011;68816;45.558;10.070;2023-04-03T06:19:05;9.00;;;4.47;;
63738;SDS011;68816;45.558;10.070;2023-04-03T06:21:32;7.88;;;4.30;;
63738;SDS011;68816;45.558;10.070;2023-04-03T06:23:57;8.02;;;4.22;;
63738;SDS011;68816;45.558;10.070;2023-04-03T06:26:23;7.63;;;4.03;;
63738;SDS011;68816;45.558;10.070;2023-04-03T06:28:48;9.30;;;3.97;;
63738;SDS011;68816;45.558;10.070;2023-04-03T06:31:14;11.27;;;4.60;;
63738;SDS011;68816;45.558;10.070;2023-04-03T06:33:39;8.35;;;4.60;;
63738;SDS011;68816;45.558;10.070;2023-04-03T06:36:05;12.52;;;5.20;;
63738;SDS011;68816;45.558;10.070;2023-04-03T06:38:31;12.68;;;5.70;;
63738;SDS011;68816;45.558;10.070;2023-04-03T06:40:58;10.93;;;6.00;;
63738;SDS011;68816;45.558;10.070;2023-04-03T06:43:23;12.73;;;5.80;;
63738;SDS011;68816;45.558;10.070;2023-04-03T06:45:49;10.88;;;6.22;;
63738;SDS011;68816;45.558;10.070;2023-04-03T06:48:15;14.32;;;6.00;;
63738;SDS011;68816;45.558;10.070;2023-04-03T06:50:41;12.32;;;5.88;;
63738;SDS011;68816;45.558;10.070;2023-04-03T06:53:07;9.25;;;5.43;;
63738;SDS011;68816;45.558;10.070;2023-04-03T06:55:33;16.77;;;5.68;;
63738;SDS011;68816;45.558;10.070;2023-04-03T06:57:58;11.10;;;5.60;;
63738;SDS011;68816;45.558;10.070;2023-04-03T07:00:24;12.57;;;5.78;;
63738;SDS011;68816;45.558;10.070;2023-04-03T07:02:50;10.18;;;5.15;;
63738;SDS011;68816;45.558;10.070;2023-04-03T07:05:16;10.32;;;4.80;;
63738;SDS011;68816;45.558;10.070;2023-04-03T07:07:42;12.55;;;4.95;;
63738;SDS011;68816;45.558;10.070;2023-04-03T07:10:07;14.73;;;5.53;;
63738;SDS011;68816;45.558;10.070;2023-04-03T07:12:33;9.80;;;5.05;;
63738;SDS011;68816;45.558;10.070;2023-04-03T07:14:59;10.65;;;4.53;;
63738;SDS011;68816;45.558;10.070;2023-04-03T07:17:24;8.55;;;4.15;;
63738;SDS011;68816;45.558;10.070;2023-04-03T07:19:50;7.72;;;3.78;;
63738;SDS011;68816;45.558;10.070;2023-04-03T07:22:16;9.13;;;4.07;;
63738;SDS011;68816;45.558;10.070;2023-04-03T07:24:42;7.35;;;4.13;;
63738;SDS011;68816;45.558;10.070;2023-04-03T07:27:07;9.02;;;4.28;;
63738;SDS011;68816;45.558;10.070;2023-04-03T07:29:33;8.93;;;3.53;;
63738;SDS011;68816;45.558;10.070;2023-04-03T07:32:00;7.63;;;3.60;;
63738;SDS011;68816;45.558;10.070;2023-04-03T07:34:26;8.07;;;3.85;;
63738;SDS011;68816;45.558;10.070;2023-04-03T07:36:51;6.25;;;2.83;;
63738;SDS011;68816;45.558;10.070;2023-04-03T07:39:17;7.80;;;3.28;;
63738;SDS011;68816;45.558;10.070;2023-04-03T07:41:42;5.88;;;2.75;;
63738;SDS011;68816;45.558;10.070;2023-04-03T07:44:08;9.57;;;3.13;;
63738;SDS011;68816;45.558;10.070;2023-04-03T07:46:34;4.45;;;2.42;;
63738;SDS011;68816;45.558;10.070;2023-04-03T07:49:00;10.18;;;3.42;;
63738;SDS011;68816;45.558;10.070;2023-04-03T07:51:26;3.83;;;1.70;;
63738;SDS011;68816;45.558;10.070;2023-04-03T07:53:53;3.72;;;1.50;;
63738;SDS011;68816;45.558;10.070;2023-04-03T07:56:19;3.13;;;1.40;;
63738;SDS011;68816;45.558;10.070;2023-04-03T07:58:45;2.78;;;1.75;;
63738;SDS011;68816;45.558;10.070;2023-04-03T08:01:11;3.90;;;1.83;;
63738;SDS011;68816;45.558;10.070;2023-04-03T08:03:37;2.47;;;1.50;;
63738;SDS011;68816;45.558;10.070;2023-04-03T08:06:04;1.90;;;1.60;;
63738;SDS011;68816;45.558;10.070;2023-04-03T08:08:31;5.68;;;2.15;;
63738;SDS011;68816;45.558;10.070;2023-04-03T08:10:58;2.70;;;1.85;;
63738;SDS011;68816;45.558;10.070;2023-04-03T08:13:25;2.95;;;1.90;;
63738;SDS011;68816;45.558;10.070;2023-04-03T08:15:50;2.85;;;1.83;;
63738;SDS011;68816;45.558;10.070;2023-04-03T08:18:16;3.97;;;2.30;;
63738;SDS011;68816;45.558;10.070;2023-04-03T08:20:43;4.00;;;2.22;;
63738;SDS011;68816;45.558;10.070;2023-04-03T08:23:09;3.85;;;2.20;;
63738;SDS011;68816;45.558;10.070;2023-04-03T08:25:38;5.53;;;2.40;;
63738;SDS011;68816;45.558;10.070;2023-04-03T08:28:07;5.47;;;2.10;;
63738;SDS011;68816;45.558;10.070;2023-04-03T08:30:34;4.20;;;2.20;;
63738;SDS011;68816;45.558;10.070;2023-04-03T08:33:01;4.50;;;2.70;;
63738;SDS011;68816;45.558;10.070;2023-04-03T08:35:27;5.25;;;2.40;;
63738;SDS011;68816;45.558;10.070;2023-04-03T08:37:53;5.35;;;2.92;;
63738;SDS011;68816;45.558;10.070;2023-04-03T08:40:18;3.20;;;2.90;;
63738;SDS011;68816;45.558;10.070;2023-04-03T08:43:28;5.68;;;2.40;;
63738;SDS011;68816;45.558;10.070;2023-04-03T08:48:20;2.35;;;2.15;;
63738;SDS011;68816;45.558;10.070;2023-04-03T08:50:51;3.92;;;2.40;;
63738;SDS011;68816;45.558;10.070;2023-04-03T08:53:23;3.20;;;1.77;;
63738;SDS011;68816;45.558;10.070;2023-04-03T08:55:53;3.15;;;2.00;;
63738;SDS011;68816;45.558;10.070;2023-04-03T08:58:30;3.03;;;2.00;;
63738;SDS011;68816;45.558;10.070;2023-04-03T09:00:59;5.00;;;2.33;;
63738;SDS011;68816;45.558;10.070;2023-04-03T09:03:29;2.22;;;1.70;;
63738;SDS011;68816;45.558;10.070;2023-04-03T09:08:44;2.47;;;2.10;;
63738;SDS011;68816;45.558;10.070;2023-04-03T09:20:02;4.90;;;2.05;;
63738;SDS011;68816;45.558;10.070;2023-04-03T09:22:51;4.60;;;2.40;;
63738;SDS011;68816;45.558;10.070;2023-04-03T09:25:22;4.45;;;2.33;;
63738;SDS011;68816;45.558;10.070;2023-04-03T09:27:51;2.53;;;1.70;;
63738;SDS011;68816;45.558;10.070;2023-04-03T09:30:18;4.35;;;1.88;;
63738;SDS011;68816;45.558;10.070;2023-04-03T09:32:48;3.17;;;1.80;;
63738;SDS011;68816;45.558;10.070;2023-04-03T09:37:58;4.65;;;1.98;;
63738;SDS011;68816;45.558;10.070;2023-04-03T09:40:37;5.53;;;2.13;;
63738;SDS011;68816;45.558;10.070;2023-04-03T09:43:19;2.08;;;1.48;;
63738;SDS011;68816;45.558;10.070;2023-04-03T09:49:02;2.90;;;1.90;;
63738;SDS011;68816;45.558;10.070;2023-04-03T09:51:29;3.72;;;2.13;;
63738;SDS011;68816;45.558;10.070;2023-04-03T09:53:56;4.78;;;2.53;;
63738;SDS011;68816;45.558;10.070;2023-04-03T09:56:29;3.17;;;2.33;;
63738;SDS011;68816;45.558;10.070;2023-04-03T10:01:31;4.40;;;2.67;;
63738;SDS011;68816;45.558;10.070;2023-04-03T10:04:06;3.22;;;2.90;;
63738;SDS011;68816;45.558;10.070;2023-04-03T10:09:04;3.90;;;2.00;;
63738;SDS011;68816;45.558;10.070;2023-04-03T10:11:39;4.15;;;2.17;;
63738;SDS011;68816;45.558;10.070;2023-04-03T10:14:25;3.00;;;1.98;;
63738;SDS011;68816;45.558;10.070;2023-04-03T10:22:19;4.18;;;2.15;;
63738;SDS011;68816;45.558;10.070;2023-04-03T10:27:44;3.67;;;2.60;;
63738;SDS011;68816;45.558;10.070;2023-04-03T10:30:37;2.92;;;2.35;;
63738;SDS011;68816;45.558;10.070;2023-04-03T10:38:39;2.70;;;2.50;;
63738;SDS011;68816;45.558;10.070;2023-04-03T10:47:26;3.80;;;2.50;;
63738;SDS011;68816;45.558;10.070;2023-04-03T10:57:32;2.80;;;2.53;;
63738;SDS011;68816;45.558;10.070;2023-04-03T11:00:02;3.95;;;2.45;;
63738;SDS011;68816;45.558;10.070;2023-04-03T11:02:37;4.60;;;2.80;;
63738;SDS011;68816;45.558;10.070;2023-04-03T11:08:02;3.63;;;2.72;;
63738;SDS011;68816;45.558;10.070;2023-04-03T11:10:42;3.97;;;3.03;;
63738;SDS011;68816;45.558;10.070;2023-04-03T11:13:22;4.22;;;2.90;;
63738;SDS011;68816;45.558;10.070;2023-04-03T11:16:09;3.90;;;3.15;;
63738;SDS011;68816;45.558;10.070;2023-04-03T11:18:43;2.95;;;2.47;;
63738;SDS011;68816;45.558;10.070;2023-04-03T11:21:16;3.63;;;2.50;;
63738;SDS011;68816;45.558;10.070;2023-04-03T11:23:47;4.45;;;2.85;;
63738;SDS011;68816;45.558;10.070;2023-04-03T11:26:14;4.38;;;2.70;;
63738;SDS011;68816;45.558;10.070;2023-04-03T11:28:42;4.00;;;2.67;;
63738;SDS011;68816;45.558;10.070;2023-04-03T11:33:55;6.13;;;2.72;;
63738;SDS011;68816;45.558;10.070;2023-04-03T11:36:32;4.50;;;2.67;;
63738;SDS011;68816;45.558;10.070;2023-04-03T11:39:10;7.00;;;2.70;;
63738;SDS011;68816;45.558;10.070;2023-04-03T11:41:52;4.15;;;2.58;;
63738;SDS011;68816;45.558;10.070;2023-04-03T11:47:02;4.93;;;2.42;;
63738;SDS011;68816;45.558;10.070;2023-04-03T12:24:00;4.80;;;3.30;;
63738;SDS011;68816;45.558;10.070;2023-04-03T12:29:13;4.68;;;3.53;;
63738;SDS011;68816;45.558;10.070;2023-04-03T12:31:46;3.65;;;3.30;;
63738;SDS011;68816;45.558;10.070;2023-04-03T12:40:31;4.28;;;3.33;;
63738;SDS011;68816;45.558;10.070;2023-04-03T12:51:18;4.88;;;3.47;;
63738;SDS011;68816;45.558;10.070;2023-04-03T12:53:46;4.00;;;3.00;;
63738;SDS011;68816;45.558;10.070;2023-04-03T12:56:22;6.07;;;3.25;;
63738;SDS011;68816;45.558;10.070;2023-04-03T12:58:48;5.55;;;3.70;;
63738;SDS011;68816;45.558;10.070;2023-04-03T13:01:20;4.82;;;3.42;;
63738;SDS011;68816;45.558;10.070;2023-04-03T13:03:49;8.27;;;3.85;;
63738;SDS011;68816;45.558;10.070;2023-04-03T13:06:30;5.20;;;3.53;;
63738;SDS011;68816;45.558;10.070;2023-04-03T13:09:05;6.95;;;3.95;;
63738;SDS011;68816;45.558;10.070;2023-04-03T13:11:42;4.82;;;3.35;;
63738;SDS011;68816;45.558;10.070;2023-04-03T13:14:20;7.43;;;3.55;;
63738;SDS011;68816;45.558;10.070;2023-04-03T13:17:00;6.53;;;3.30;;
63738;SDS011;68816;45.558;10.070;2023-04-03T13:19:31;6.70;;;3.63;;
63738;SDS011;68816;45.558;10.070;2023-04-03T13:21:58;7.35;;;3.83;;
63738;SDS011;68816;45.558;10.070;2023-04-03T13:26:57;6.05;;;3.60;;
63738;SDS011;68816;45.558;10.070;2023-04-03T13:29:33;7.78;;;3.85;;
63738;SDS011;68816;45.558;10.070;2023-04-03T13:32:02;7.60;;;3.75;;
63738;SDS011;68816;45.558;10.070;2023-04-03T13:34:36;7.38;;;3.42;;
63738;SDS011;68816;45.558;10.070;2023-04-03T13:37:22;5.70;;;3.53;;
63738;SDS011;68816;45.558;10.070;2023-04-03T13:39:57;10.05;;;3.20;;
63738;SDS011;68816;45.558;10.070;2023-04-03T13:42:37;3.72;;;3.13;;
63738;SDS011;68816;45.558;10.070;2023-04-03T13:45:23;5.68;;;3.63;;
63738;SDS011;68816;45.558;10.070;2023-04-03T13:47:53;5.93;;;3.70;;
63738;SDS011;68816;45.558;10.070;2023-04-03T13:50:40;6.68;;;3.67;;
63738;SDS011;68816;45.558;10.070;2023-04-03T13:53:17;8.18;;;3.50;;
63738;SDS011;68816;45.558;10.070;2023-04-03T13:58:24;7.35;;;4.13;;
63738;SDS011;68816;45.558;10.070;2023-04-03T14:00:56;8.80;;;4.43;;
63738;SDS011;68816;45.558;10.070;2023-04-03T14:03:26;5.88;;;3.45;;
63738;SDS011;68816;45.558;10.070;2023-04-03T14:05:55;6.10;;;3.67;;
63738;SDS011;68816;45.558;10.070;2023-04-03T14:08:21;10.82;;;3.92;;
63738;SDS011;68816;45.558;10.070;2023-04-03T14:10:47;6.15;;;4.20;;
63738;SDS011;68816;45.558;10.070;2023-04-03T14:13:15;5.22;;;3.42;;
63738;SDS011;68816;45.558;10.070;2023-04-03T14:15:41;4.60;;;3.70;;
63738;SDS011;68816;45.558;10.070;2023-04-03T14:18:10;4.45;;;3.45;;
63738;SDS011;68816;45.558;10.070;2023-04-03T14:20:37;7.07;;;3.60;;
63738;SDS011;68816;45.558;10.070;2023-04-03T14:23:03;6.57;;;3.88;;
63738;SDS011;68816;45.558;10.070;2023-04-03T14:25:28;4.88;;;3.45;;
63738;SDS011;68816;45.558;10.070;2023-04-03T14:27:54;6.03;;;3.50;;
63738;SDS011;68816;45.558;10.070;2023-04-03T14:30:22;5.93;;;3.53;;
63738;SDS011;68816;45.558;10.070;2023-04-03T14:32:50;8.20;;;4.15;;
63738;SDS011;68816;45.558;10.070;2023-04-03T14:35:16;5.32;;;3.67;;
63738;SDS011;68816;45.558;10.070;2023-04-03T14:37:43;8.85;;;4.05;;
63738;SDS011;68816;45.558;10.070;2023-04-03T14:40:13;7.35;;;4.22;;
63738;SDS011;68816;45.558;10.070;2023-04-03T14:42:40;6.13;;;4.45;;
63738;SDS011;68816;45.558;10.070;2023-04-03T14:45:07;7.97;;;4.15;;
63738;SDS011;68816;45.558;10.070;2023-04-03T14:47:37;7.60;;;4.57;;
63738;SDS011;68816;45.558;10.070;2023-04-03T14:50:07;6.55;;;4.18;;
63738;SDS011;68816;45.558;10.070;2023-04-03T14:52:38;8.40;;;4.63;;
63738;SDS011;68816;45.558;10.070;2023-04-03T14:55:05;8.13;;;4.40;;
63738;SDS011;68816;45.558;10.070;2023-04-03T14:57:31;8.00;;;4.60;;
63738;SDS011;68816;45.558;10.070;2023-04-03T14:59:57;7.43;;;4.43;;
63738;SDS011;68816;45.558;10.070;2023-04-03T15:04:52;8.30;;;4.47;;
63738;SDS011;68816;45.558;10.070;2023-04-03T15:07:18;10.05;;;5.30;;
63738;SDS011;68816;45.558;10.070;2023-04-03T15:09:44;6.43;;;4.60;;
63738;SDS011;68816;45.558;10.070;2023-04-03T15:12:10;10.15;;;4.90;;
63738;SDS011;68816;45.558;10.070;2023-04-03T15:14:35;12.05;;;4.68;;
63738;SDS011;68816;45.558;10.070;2023-04-03T15:17:01;10.80;;;5.25;;
63738;SDS011;68816;45.558;10.070;2023-04-03T15:19:27;12.50;;;4.28;;
63738;SDS011;68816;45.558;10.070;2023-04-03T15:21:53;9.02;;;4.57;;
63738;SDS011;68816;45.558;10.070;2023-04-03T15:24:18;5.93;;;4.50;;
63738;SDS011;68816;45.558;10.070;2023-04-03T15:26:44;6.38;;;4.50;;
63738;SDS011;68816;45.558;10.070;2023-04-03T15:29:10;9.10;;;5.10;;
63738;SDS011;68816;45.558;10.070;2023-04-03T15:31:35;9.30;;;4.65;;
63738;SDS011;68816;45.558;10.070;2023-04-03T15:34:00;12.57;;;5.00;;
63738;SDS011;68816;45.558;10.070;2023-04-03T15:36:27;6.75;;;4.47;;
63738;SDS011;68816;45.558;10.070;2023-04-03T15:38:53;11.00;;;4.75;;
63738;SDS011;68816;45.558;10.070;2023-04-03T15:41:18;8.07;;;4.05;;
63738;SDS011;68816;45.558;10.070;2023-04-03T15:43:43;9.65;;;4.35;;
63738;SDS011;68816;45.558;10.070;2023-04-03T15:46:09;7.57;;;4.22;;
63738;SDS011;68816;45.558;10.070;2023-04-03T15:48:35;8.05;;;4.00;;
63738;SDS011;68816;45.558;10.070;2023-04-03T15:51:01;15.07;;;4.78;;
63738;SDS011;68816;45.558;10.070;2023-04-03T15:53:27;6.82;;;4.10;;
63738;SDS011;68816;45.558;10.070;2023-04-03T15:55:52;7.15;;;4.40;;
63738;SDS011;68816;45.558;10.070;2023-04-03T15:58:17;9.38;;;4.13;;
63738;SDS011;68816;45.558;10.070;2023-04-03T16:00:43;10.50;;;4.72;;
63738;SDS011;68816;45.558;10.070;2023-04-03T16:03:12;9.65;;;5.13;;
63738;SDS011;68816;45.558;10.070;2023-04-03T16:05:41;11.55;;;6.22;;
63738;SDS011;68816;45.558;10.070;2023-04-03T16:08:07;9.20;;;6.38;;
63738;SDS011;68816;45.558;10.070;2023-04-03T16:10:36;6.63;;;6.03;;
63738;SDS011;68816;45.558;10.070;2023-04-03T16:13:02;7.60;;;6.07;;
63738;SDS011;68816;45.558;10.070;2023-04-03T16:15:31;6.15;;;4.45;;
63738;SDS011;68816;45.558;10.070;2023-04-03T16:17:59;6.65;;;4.75;;
63738;SDS011;68816;45.558;10.070;2023-04-03T16:20:25;11.05;;;5.00;;
63738;SDS011;68816;45.558;10.070;2023-04-03T16:22:52;8.23;;;4.82;;
63738;SDS011;68816;45.558;10.070;2023-04-03T16:25:18;8.80;;;4.30;;
63738;SDS011;68816;45.558;10.070;2023-04-03T16:27:43;6.75;;;3.95;;
63738;SDS011;68816;45.558;10.070;2023-04-03T16:30:09;8.82;;;4.15;;
63738;SDS011;68816;45.558;10.070;2023-04-03T16:32:36;7.97;;;4.10;;
63738;SDS011;68816;45.558;10.070;2023-04-03T16:35:02;7.68;;;3.42;;
63738;SDS011;68816;45.558;10.070;2023-04-03T16:37:29;8.07;;;3.60;;
63738;SDS011;68816;45.558;10.070;2023-04-03T16:39:54;7.95;;;3.97;;
63738;SDS011;68816;45.558;10.070;2023-04-03T16:42:20;8.52;;;4.20;;
63738;SDS011;68816;45.558;10.070;2023-04-03T16:44:45;10.18;;;4.88;;